Rosslare, Ireland
Current Conditions -  °F | °C
As of 4:30 PM on Tuesday 21 Oct 2014 (Local Time) from EIWF Reporting Station
Scattered Clouds Scattered Clouds  
Wind Chill: 50°   Ceiling: Unl
Heat Index: 50°   Visibility: 6mi
Dew Point: 41°   Wind: 16mph
Humidity: 71%   Direction: 310°NW
Pressure: 30.15"   Gusts: 28mph
Location:  52.27°N, 6.39°W
Report Text: EIWF 211630Z 31014G24KT 280V340 9999 FEW020 SCT048 10/05 Q1021
Loading
Personal Weather Stations






























Interactive Weather Map
Tropical Storm Tracking
New forecast layout! Learn more

10-Day Weather Forecast

Advertisements
Track Severe Weather on mobile